createdAt,value
2018-10-15T00:00:19.330Z,10.20
2018-10-15T00:02:48.173Z,10.10
2018-10-15T00:05:16.801Z,10.10
2018-10-15T00:07:45.471Z,10.10
2018-10-15T00:10:14.079Z,10.10
2018-10-15T00:12:43.304Z,10.10
2018-10-15T00:15:27.746Z,10.20
2018-10-15T00:17:56.451Z,10.20
2018-10-15T00:20:25.373Z,10.10
2018-10-15T00:22:54.837Z,10.10
2018-10-15T00:25:23.753Z,10.00
2018-10-15T00:27:52.631Z,10.00
2018-10-15T00:30:21.577Z,10.00
2018-10-15T00:32:50.494Z,9.90
2018-10-15T00:35:19.131Z,9.90
2018-10-15T00:37:47.907Z,9.80
2018-10-15T00:40:16.545Z,9.80
2018-10-15T00:42:45.390Z,9.80
2018-10-15T00:45:14.753Z,9.90
2018-10-15T00:47:43.643Z,9.90
2018-10-15T00:50:13.340Z,9.90
2018-10-15T00:52:42.463Z,9.80
2018-10-15T00:55:12.318Z,9.80
2018-10-15T00:57:41.256Z,9.80
2018-10-15T01:00:12.922Z,9.80
2018-10-15T01:02:41.786Z,9.90
2018-10-15T01:05:12.702Z,9.90
2018-10-15T01:07:41.830Z,9.90
2018-10-15T01:10:12.183Z,9.80
2018-10-15T01:12:41.259Z,9.80
2018-10-15T01:15:11.576Z,9.80
2018-10-15T01:17:40.936Z,9.70
2018-10-15T01:20:11.490Z,9.70
2018-10-15T01:22:40.316Z,9.70
2018-10-15T01:25:10.798Z,9.60
2018-10-15T01:27:39.971Z,9.60
2018-10-15T01:30:13.294Z,9.60
2018-10-15T01:32:42.706Z,9.50
2018-10-15T01:35:11.567Z,9.40
2018-10-15T01:37:40.436Z,9.40
2018-10-15T01:40:09.131Z,9.20
2018-10-15T01:42:38.803Z,9.10
2018-10-15T01:45:14.022Z,9.10
2018-10-15T01:47:42.716Z,9.10
2018-10-15T01:50:11.387Z,9.10
2018-10-15T01:52:40.112Z,9.10
2018-10-15T01:55:09.439Z,9.00
2018-10-15T01:57:38.270Z,9.00
2018-10-15T02:00:08.324Z,8.90
2018-10-15T02:02:37.445Z,9.00
2018-10-15T02:05:06.898Z,9.00
2018-10-15T02:07:35.556Z,9.00
2018-10-15T02:10:04.268Z,9.00
2018-10-15T02:12:32.997Z,9.00
2018-10-15T02:15:01.632Z,8.90
2018-10-15T02:17:30.420Z,8.90
2018-10-15T02:19:59.105Z,8.90
2018-10-15T02:22:27.758Z,9.00
2018-10-15T02:24:56.473Z,9.00
2018-10-15T02:27:25.517Z,9.00
2018-10-15T02:29:54.372Z,9.10
2018-10-15T02:32:23.055Z,9.10
2018-10-15T02:34:52.059Z,9.10
2018-10-15T02:37:20.736Z,9.00
2018-10-15T02:39:49.756Z,9.10
2018-10-15T02:42:18.541Z,9.00
2018-10-15T02:44:47.311Z,8.90
2018-10-15T02:47:16.004Z,8.80
2018-10-15T02:49:44.672Z,8.80
2018-10-15T02:52:13.368Z,8.80
2018-10-15T02:54:42.041Z,8.80
2018-10-15T02:57:11.085Z,8.80
2018-10-15T02:59:39.712Z,8.80
2018-10-15T03:02:08.476Z,8.80
2018-10-15T03:04:37.515Z,8.70
2018-10-15T03:07:06.465Z,8.60
2018-10-15T03:09:35.135Z,8.60
2018-10-15T03:12:03.902Z,8.60
2018-10-15T03:14:33.770Z,8.60
2018-10-15T03:17:02.448Z,8.60
2018-10-15T03:19:31.525Z,8.60
2018-10-15T03:22:00.312Z,8.50
2018-10-15T03:24:29.000Z,8.60
2018-10-15T03:26:57.699Z,8.60
2018-10-15T03:29:26.554Z,8.60
2018-10-15T03:31:55.291Z,8.50
2018-10-15T03:34:23.954Z,8.50
2018-10-15T03:36:52.618Z,8.60
2018-10-15T03:39:21.335Z,8.60
2018-10-15T03:41:50.234Z,8.60
2018-10-15T03:44:19.032Z,8.60
2018-10-15T03:46:47.724Z,8.70
2018-10-15T03:49:16.910Z,8.70
2018-10-15T03:51:45.962Z,8.70
2018-10-15T03:54:14.773Z,8.70
2018-10-15T03:56:43.498Z,8.70
2018-10-15T03:59:12.305Z,8.70
2018-10-15T04:01:40.997Z,8.60
2018-10-15T04:04:09.819Z,8.50
2018-10-15T04:06:38.551Z,8.50
2018-10-15T04:09:09.995Z,8.40
2018-10-15T04:11:38.735Z,8.40
2018-10-15T04:14:08.207Z,8.40
2018-10-15T04:16:37.273Z,8.40
2018-10-15T04:19:06.669Z,8.30
2018-10-15T04:21:35.741Z,8.30
2018-10-15T04:24:05.752Z,8.30
2018-10-15T04:26:34.485Z,8.30
2018-10-15T04:29:03.233Z,8.30
2018-10-15T04:31:32.182Z,8.20
2018-10-15T04:34:00.957Z,8.20
2018-10-15T04:36:29.643Z,8.20
2018-10-15T04:38:59.009Z,8.10
2018-10-15T04:41:28.189Z,8.10
2018-10-15T04:43:56.984Z,8.10
2018-10-15T04:46:25.668Z,8.20
2018-10-15T04:48:55.921Z,8.20
2018-10-15T04:51:24.827Z,8.20
2018-10-15T04:53:53.666Z,8.20
2018-10-15T04:56:22.383Z,8.10
2018-10-15T04:58:51.190Z,8.10
2018-10-15T05:01:19.943Z,8.10
2018-10-15T05:03:50.569Z,8.10
2018-10-15T05:06:20.822Z,8.00
2018-10-15T05:08:50.000Z,8.00
2018-10-15T05:11:19.473Z,8.00
2018-10-15T05:13:48.437Z,8.00
2018-10-15T05:16:22.964Z,8.00
2018-10-15T05:18:51.887Z,8.00
2018-10-15T05:21:20.922Z,8.00
2018-10-15T05:23:49.473Z,8.00
2018-10-15T05:26:18.287Z,7.90
2018-10-15T05:28:47.305Z,7.80
2018-10-15T05:31:16.061Z,7.70
2018-10-15T05:33:44.725Z,7.70
2018-10-15T05:36:13.523Z,7.70
2018-10-15T05:38:42.253Z,7.70
2018-10-15T05:41:13.605Z,7.70
2018-10-15T05:43:43.100Z,7.70
2018-10-15T05:46:12.909Z,7.70
2018-10-15T05:48:41.766Z,7.70
2018-10-15T05:51:10.457Z,7.70
2018-10-15T05:53:39.165Z,7.80
2018-10-15T05:56:11.013Z,7.80
2018-10-15T05:58:41.569Z,7.90
2018-10-15T06:01:10.309Z,8.00
2018-10-15T06:03:39.028Z,8.10
2018-10-15T06:06:07.907Z,8.10
2018-10-15T06:08:36.849Z,8.20
2018-10-15T06:11:05.568Z,8.30
2018-10-15T06:13:34.284Z,8.30
2018-10-15T06:16:02.952Z,8.50
2018-10-15T06:18:31.624Z,8.50
2018-10-15T06:21:00.304Z,8.60
2018-10-15T06:23:29.200Z,8.70
2018-10-15T06:25:57.916Z,8.80
2018-10-15T06:28:27.163Z,8.90
2018-10-15T06:30:56.298Z,9.00
2018-10-15T06:33:24.991Z,9.10
2018-10-15T06:35:53.661Z,9.10
2018-10-15T06:38:22.771Z,9.20
2018-10-15T06:40:51.430Z,9.20
2018-10-15T06:43:20.202Z,9.20
2018-10-15T06:45:49.098Z,9.30
2018-10-15T06:51:32.249Z,9.50
2018-10-15T06:54:00.958Z,9.60
2018-10-15T06:56:29.681Z,9.70
2018-10-15T06:58:59.552Z,9.80
2018-10-15T07:01:28.276Z,9.90
2018-10-15T07:03:57.079Z,10.00
2018-10-15T07:06:26.096Z,10.20
2018-10-15T07:08:54.874Z,10.30
2018-10-15T07:11:23.888Z,10.40
2018-10-15T07:13:52.706Z,10.60
2018-10-15T07:16:21.532Z,10.80
2018-10-15T07:18:50.196Z,10.90
2018-10-15T07:21:18.898Z,11.00
2018-10-15T07:23:48.260Z,11.10
2018-10-15T07:26:17.335Z,11.10
2018-10-15T07:28:46.035Z,11.30
2018-10-15T07:31:14.765Z,11.50
2018-10-15T07:33:43.564Z,11.70
2018-10-15T07:36:12.293Z,11.90
2018-10-15T07:38:41.032Z,12.10
2018-10-15T07:41:09.765Z,12.20
2018-10-15T07:43:38.405Z,12.40
2018-10-15T07:46:08.062Z,12.60
2018-10-15T07:48:36.796Z,12.80
2018-10-15T07:51:06.273Z,12.80
2018-10-15T07:53:35.029Z,12.80
2018-10-15T07:56:03.827Z,12.70
2018-10-15T07:58:38.891Z,12.70
2018-10-15T08:01:07.624Z,12.80
2018-10-15T08:03:36.342Z,12.90
2018-10-15T08:06:05.966Z,13.10
2018-10-15T08:08:37.293Z,13.40
2018-10-15T08:11:19.130Z,13.60
2018-10-15T08:13:47.822Z,13.90
2018-10-15T08:16:17.029Z,14.20
2018-10-15T08:18:45.644Z,14.40
2018-10-15T08:21:14.415Z,14.60
2018-10-15T08:23:43.094Z,14.80
2018-10-15T08:26:11.878Z,15.10
2018-10-15T08:28:40.766Z,15.40
2018-10-15T08:31:09.491Z,15.60
2018-10-15T08:33:51.941Z,15.80
2018-10-15T08:36:23.755Z,16.00
2018-10-15T08:38:52.495Z,16.20
2018-10-15T08:41:21.343Z,16.60
2018-10-15T08:43:50.075Z,16.80
2018-10-15T08:46:18.823Z,17.10
2018-10-15T08:48:47.553Z,17.10
2018-10-15T08:51:16.301Z,17.30
2018-10-15T08:53:45.043Z,17.50
2018-10-15T08:56:14.153Z,17.70
2018-10-15T08:58:42.896Z,18.00
2018-10-15T09:01:11.719Z,18.10
2018-10-15T09:03:40.446Z,18.30
2018-10-15T09:06:09.259Z,18.50
2018-10-15T09:08:38.598Z,18.70
2018-10-15T09:11:07.812Z,18.80
2018-10-15T09:13:36.538Z,18.80
2018-10-15T09:16:05.494Z,18.90
2018-10-15T09:18:34.231Z,19.10
2018-10-15T09:21:03.038Z,19.40
2018-10-15T09:23:31.936Z,19.80
2018-10-15T09:26:00.999Z,20.10
2018-10-15T09:28:29.615Z,20.40
2018-10-15T09:30:58.439Z,20.70
2018-10-15T09:33:27.228Z,21.00
2018-10-15T09:35:56.028Z,21.30
2018-10-15T09:38:24.849Z,21.60
2018-10-15T09:40:53.574Z,21.90
2018-10-15T09:43:22.256Z,22.20
2018-10-15T09:45:53.925Z,22.50
2018-10-15T09:48:22.697Z,22.80
2018-10-15T09:50:51.430Z,22.90
2018-10-15T09:53:20.127Z,23.30
2018-10-15T09:55:49.454Z,23.60
2018-10-15T09:58:18.253Z,23.80
2018-10-15T10:00:50.125Z,24.10
2018-10-15T10:03:18.839Z,24.20
2018-10-15T10:05:47.572Z,24.40
2018-10-15T10:08:24.596Z,24.60
2018-10-15T10:10:53.564Z,24.60
2018-10-15T10:13:22.273Z,24.60
2018-10-15T10:15:50.968Z,24.70
2018-10-15T10:18:19.852Z,25.10
2018-10-15T10:20:48.596Z,25.20
2018-10-15T10:23:17.236Z,25.40
2018-10-15T10:25:47.978Z,25.40
2018-10-15T10:28:16.928Z,25.50
2018-10-15T10:30:47.591Z,25.60
2018-10-15T10:33:16.313Z,25.70
2018-10-15T10:36:06.001Z,25.80
2018-10-15T10:38:46.256Z,25.90
2018-10-15T10:41:15.988Z,26.20
2018-10-15T10:43:45.093Z,26.20
2018-10-15T10:46:13.839Z,26.30
2018-10-15T10:48:42.572Z,26.60
2018-10-15T10:51:11.300Z,26.80
2018-10-15T10:53:40.024Z,27.10
2018-10-15T10:56:08.724Z,27.20
2018-10-15T10:58:43.454Z,27.40
2018-10-15T11:01:12.167Z,27.50
2018-10-15T11:03:41.442Z,27.60
2018-10-15T11:06:10.200Z,27.80
2018-10-15T11:08:39.080Z,28.00
2018-10-15T11:11:09.089Z,28.00
2018-10-15T11:13:37.779Z,28.30
2018-10-15T11:16:08.129Z,28.80
2018-10-15T11:18:37.335Z,28.90
2018-10-15T11:21:06.554Z,28.90
2018-10-15T11:23:36.492Z,29.00
2018-10-15T11:26:05.341Z,29.30
2018-10-15T11:28:34.100Z,29.40
2018-10-15T11:31:02.842Z,29.30
2018-10-15T11:33:31.569Z,29.50
2018-10-15T11:36:00.311Z,29.10
2018-10-15T11:38:29.024Z,29.10
2018-10-15T11:40:57.727Z,29.30
2018-10-15T11:43:26.574Z,29.40
2018-10-15T11:45:55.208Z,29.40
2018-10-15T11:48:24.231Z,29.30
2018-10-15T11:50:53.022Z,28.70
2018-10-15T11:53:22.021Z,28.40
2018-10-15T11:55:50.750Z,28.40
2018-10-15T11:58:19.460Z,28.60
2018-10-15T12:00:49.571Z,28.70
2018-10-15T12:03:18.297Z,28.40
2018-10-15T12:05:48.133Z,28.20
2018-10-15T12:08:17.234Z,28.50
2018-10-15T12:10:45.951Z,29.00
2018-10-15T12:13:14.709Z,29.30
2018-10-15T12:15:43.431Z,29.40
2018-10-15T12:18:12.124Z,29.30
2018-10-15T12:20:40.805Z,29.40
2018-10-15T12:23:09.519Z,29.80
2018-10-15T12:25:38.277Z,30.00
2018-10-15T12:28:07.065Z,29.80
2018-10-15T12:30:35.877Z,29.50
2018-10-15T12:33:05.107Z,29.10
2018-10-15T12:35:34.737Z,29.00
2018-10-15T12:38:03.461Z,29.40
2018-10-15T12:40:32.209Z,29.70
2018-10-15T12:43:01.448Z,29.60
2018-10-15T12:45:35.345Z,29.80
2018-10-15T12:48:04.112Z,30.00
2018-10-15T12:50:32.795Z,30.20
2018-10-15T12:53:15.407Z,30.50
2018-10-15T12:55:44.114Z,30.50
2018-10-15T12:58:13.472Z,30.60
2018-10-15T13:00:43.059Z,30.70
2018-10-15T13:03:12.493Z,30.50
2018-10-15T13:05:41.215Z,29.90
2018-10-15T13:08:10.181Z,29.90
2018-10-15T13:10:38.972Z,30.20
2018-10-15T13:13:07.584Z,30.50
2018-10-15T13:15:36.230Z,30.50
2018-10-15T13:18:04.940Z,30.00
2018-10-15T13:20:33.657Z,29.70
2018-10-15T13:23:02.425Z,29.70
2018-10-15T13:25:42.694Z,29.70
2018-10-15T13:28:12.364Z,29.90
2018-10-15T13:30:44.946Z,30.20
2018-10-15T13:33:21.849Z,30.60
2018-10-15T13:35:52.775Z,31.20
2018-10-15T13:38:21.545Z,31.70
2018-10-15T13:40:50.229Z,32.00
2018-10-15T13:43:19.576Z,32.10
2018-10-15T13:45:48.220Z,32.30
2018-10-15T13:48:16.896Z,32.40
2018-10-15T13:50:45.610Z,32.40
2018-10-15T13:53:14.353Z,32.90
2018-10-15T13:55:43.292Z,33.30
2018-10-15T13:58:13.088Z,33.50
2018-10-15T14:00:42.948Z,33.80
2018-10-15T14:03:13.489Z,34.10
2018-10-15T14:05:42.144Z,34.40
2018-10-15T14:08:10.787Z,34.60
2018-10-15T14:10:39.484Z,34.90
2018-10-15T14:13:08.209Z,35.30
2018-10-15T14:15:36.853Z,35.50
2018-10-15T14:18:06.507Z,35.90
2018-10-15T14:20:35.187Z,36.10
2018-10-15T14:23:03.908Z,36.40
2018-10-15T14:25:32.544Z,36.70
2018-10-15T14:28:01.373Z,37.20
2018-10-15T14:30:30.049Z,37.50
2018-10-15T14:32:58.697Z,37.70
2018-10-15T14:35:27.419Z,38.00
2018-10-15T14:37:56.091Z,38.10
2018-10-15T14:40:24.754Z,38.20
2018-10-15T14:42:54.731Z,38.20
2018-10-15T14:45:23.438Z,38.40
2018-10-15T14:47:52.067Z,38.40
2018-10-15T14:50:21.624Z,38.60
2018-10-15T14:52:51.475Z,39.00
2018-10-15T14:55:20.560Z,39.60
2018-10-15T14:57:49.272Z,39.80
2018-10-15T15:00:18.477Z,40.30
2018-10-15T15:02:47.023Z,40.10
2018-10-15T15:05:16.101Z,40.20
2018-10-15T15:07:44.841Z,40.10
2018-10-15T15:10:25.140Z,40.20
2018-10-15T15:13:04.876Z,40.20
2018-10-15T15:15:34.327Z,39.80
2018-10-15T15:18:02.944Z,39.50
2018-10-15T15:20:31.776Z,39.50
2018-10-15T15:23:00.496Z,39.30
2018-10-15T15:25:29.313Z,38.90
2018-10-15T15:30:33.035Z,38.50
2018-10-15T15:33:01.721Z,38.40
2018-10-15T15:35:30.495Z,38.20
2018-10-15T15:37:59.233Z,38.00
2018-10-15T15:40:27.869Z,37.90
2018-10-15T15:42:57.206Z,37.90
2018-10-15T15:45:26.882Z,37.20
2018-10-15T15:48:00.973Z,37.00
2018-10-15T15:50:30.844Z,36.40
2018-10-15T15:53:00.411Z,35.00
2018-10-15T15:55:30.287Z,33.30
2018-10-15T16:00:52.560Z,29.90
2018-10-15T16:03:22.394Z,28.30
2018-10-15T16:05:53.556Z,27.20
2018-10-15T16:08:22.408Z,26.20
2018-10-15T16:10:51.289Z,25.20
2018-10-15T16:13:20.403Z,24.30
2018-10-15T16:15:49.218Z,23.80
2018-10-15T16:18:19.534Z,23.40
2018-10-15T16:20:48.252Z,23.10
2018-10-15T16:23:17.200Z,22.80
2018-10-15T16:25:46.329Z,22.70
2018-10-15T16:28:15.271Z,22.70
2018-10-15T16:30:44.110Z,22.70
2018-10-15T16:33:12.952Z,22.70
2018-10-15T16:35:43.964Z,22.60
2018-10-15T16:38:13.325Z,22.60
2018-10-15T16:40:44.527Z,22.50
2018-10-15T16:43:13.337Z,22.30
2018-10-15T16:45:42.148Z,22.10
2018-10-15T16:48:10.910Z,21.90
2018-10-15T16:50:39.633Z,21.60
2018-10-15T16:53:10.292Z,21.30
2018-10-15T16:55:41.017Z,21.20
2018-10-15T16:58:09.716Z,21.00
2018-10-15T17:00:38.473Z,20.90
2018-10-15T17:03:07.331Z,20.70
2018-10-15T17:05:36.136Z,20.50
2018-10-15T17:08:04.953Z,20.30
2018-10-15T17:10:33.708Z,20.20
2018-10-15T17:13:02.480Z,20.10
2018-10-15T17:15:31.183Z,20.00
2018-10-15T17:17:59.976Z,19.80
2018-10-15T17:20:28.728Z,19.70
2018-10-15T17:22:58.485Z,19.50
2018-10-15T17:25:46.663Z,19.30
2018-10-15T17:28:17.628Z,19.10
2018-10-15T17:30:48.248Z,19.00
2018-10-15T17:33:18.063Z,18.80
2018-10-15T17:35:48.435Z,18.70
2018-10-15T17:38:17.724Z,18.60
2018-10-15T17:40:47.424Z,18.50
2018-10-15T17:43:17.022Z,18.40
2018-10-15T17:45:46.291Z,18.30
2018-10-15T17:48:17.347Z,18.30
2018-10-15T17:50:46.240Z,18.20
2018-10-15T17:53:15.035Z,18.00
2018-10-15T17:55:44.048Z,17.90
2018-10-15T17:58:12.836Z,17.80
2018-10-15T18:00:42.579Z,17.70
2018-10-15T18:03:11.380Z,17.60
2018-10-15T18:05:40.718Z,17.50
2018-10-15T18:08:09.883Z,17.40
2018-10-15T18:10:39.040Z,17.30
2018-10-15T18:13:07.869Z,17.20
2018-10-15T18:15:36.557Z,17.10
2018-10-15T18:18:05.304Z,16.90
2018-10-15T18:20:34.010Z,16.70
2018-10-15T18:23:02.725Z,16.60
2018-10-15T18:25:32.631Z,16.50
2018-10-15T18:28:01.364Z,16.40
2018-10-15T18:30:30.103Z,16.30
2018-10-15T18:32:58.780Z,16.30
2018-10-15T18:35:27.668Z,16.20
2018-10-15T18:37:56.471Z,16.20
2018-10-15T18:40:31.655Z,16.10
2018-10-15T18:43:00.464Z,16.10
2018-10-15T18:45:29.773Z,16.00
2018-10-15T18:47:58.987Z,15.90
2018-10-15T18:50:28.622Z,15.80
2018-10-15T18:52:58.542Z,15.70
2018-10-15T18:55:28.438Z,15.60
2018-10-15T18:57:58.369Z,15.50
2018-10-15T19:00:28.070Z,15.40
2018-10-15T19:02:57.768Z,15.30
2018-10-15T19:05:26.672Z,15.00
2018-10-15T19:07:55.593Z,14.80
2018-10-15T19:10:25.340Z,14.70
2018-10-15T19:12:54.758Z,14.70
2018-10-15T19:15:23.590Z,14.70
2018-10-15T19:17:53.529Z,14.70
2018-10-15T19:20:23.024Z,14.60
2018-10-15T19:22:51.873Z,14.60
2018-10-15T19:25:21.644Z,14.50
2018-10-15T19:27:51.497Z,14.50
2018-10-15T19:30:20.493Z,14.40
2018-10-15T19:32:49.600Z,14.30
2018-10-15T19:35:18.311Z,14.30
2018-10-15T19:37:47.108Z,14.10
2018-10-15T19:40:16.199Z,14.00
2018-10-15T19:42:44.982Z,13.90
2018-10-15T19:45:13.712Z,13.90
2018-10-15T19:47:42.404Z,13.80
2018-10-15T19:50:11.088Z,13.70
2018-10-15T19:52:39.753Z,13.60
2018-10-15T19:55:08.588Z,13.60
2018-10-15T19:57:37.721Z,13.50
2018-10-15T20:00:13.342Z,13.40
2018-10-15T20:02:42.322Z,13.40
2018-10-15T20:05:13.457Z,13.30
2018-10-15T20:07:42.744Z,13.20
2018-10-15T20:10:19.716Z,13.10
2018-10-15T20:12:48.360Z,13.00
2018-10-15T20:15:17.065Z,13.00
2018-10-15T20:17:45.831Z,12.90
2018-10-15T20:20:14.457Z,12.90
2018-10-15T20:22:43.195Z,12.90
2018-10-15T20:25:12.340Z,12.80
2018-10-15T20:27:42.520Z,12.70
2018-10-15T20:30:12.258Z,12.70
2018-10-15T20:32:41.057Z,12.60
2018-10-15T20:35:10.992Z,12.60
2018-10-15T20:37:39.733Z,12.50
2018-10-15T20:40:09.386Z,12.50
2018-10-15T20:42:38.182Z,12.50
2018-10-15T20:45:07.396Z,12.40
2018-10-15T20:47:36.135Z,12.40
2018-10-15T20:50:05.681Z,12.30
2018-10-15T20:52:34.367Z,12.20
2018-10-15T20:55:03.107Z,12.20
2018-10-15T20:57:31.971Z,12.10
2018-10-15T21:00:00.735Z,12.10
2018-10-15T21:02:29.514Z,12.10
2018-10-15T21:04:58.208Z,12.10
2018-10-15T21:07:27.228Z,12.00
2018-10-15T21:09:56.045Z,11.90
2018-10-15T21:12:24.764Z,11.90
2018-10-15T21:14:53.599Z,11.90
2018-10-15T21:17:22.372Z,11.80
2018-10-15T21:19:51.142Z,11.70
2018-10-15T21:22:19.904Z,11.70
2018-10-15T21:24:48.649Z,11.60
2018-10-15T21:27:17.353Z,11.50
2018-10-15T21:29:46.169Z,11.50
2018-10-15T21:32:14.916Z,11.40
2018-10-15T21:34:43.653Z,11.30
2018-10-15T21:37:12.321Z,11.30
2018-10-15T21:39:41.017Z,11.30
2018-10-15T21:42:09.901Z,11.30
2018-10-15T21:44:38.581Z,11.30
2018-10-15T21:47:07.635Z,11.30
2018-10-15T21:49:36.516Z,11.20
2018-10-15T21:52:05.856Z,11.20
2018-10-15T21:54:34.559Z,11.20
2018-10-15T21:57:03.725Z,11.20
2018-10-15T21:59:32.472Z,11.10
2018-10-15T22:02:01.156Z,11.10
2018-10-15T22:04:29.884Z,11.00
2018-10-15T22:06:58.564Z,11.00
2018-10-15T22:09:27.363Z,10.90
2018-10-15T22:11:56.069Z,10.90
2018-10-15T22:14:24.767Z,10.90
2018-10-15T22:16:53.506Z,10.90
2018-10-15T22:19:22.204Z,10.80
2018-10-15T22:21:50.874Z,10.80
2018-10-15T22:24:19.572Z,10.70
2018-10-15T22:26:48.256Z,10.60
2018-10-15T22:29:16.981Z,10.50
2018-10-15T22:31:45.678Z,10.50
2018-10-15T22:34:14.363Z,10.40
2018-10-15T22:36:43.022Z,10.40
2018-10-15T22:39:13.107Z,10.30
2018-10-15T22:41:42.345Z,10.30
2018-10-15T22:44:11.119Z,10.30
2018-10-15T22:46:40.448Z,10.30
2018-10-15T22:49:09.765Z,10.30
2018-10-15T22:51:38.559Z,10.30
2018-10-15T22:54:07.250Z,10.20
2018-10-15T22:56:37.176Z,10.20
2018-10-15T22:59:05.950Z,10.10
2018-10-15T23:01:34.714Z,10.00
2018-10-15T23:04:03.454Z,9.90
2018-10-15T23:06:32.221Z,9.90
2018-10-15T23:09:00.965Z,9.90
2018-10-15T23:11:29.686Z,9.90
2018-10-15T23:13:58.365Z,9.90
2018-10-15T23:16:27.077Z,9.80
2018-10-15T23:18:55.782Z,9.70
2018-10-15T23:21:24.431Z,9.70
2018-10-15T23:23:53.119Z,9.70
2018-10-15T23:26:21.883Z,9.70
2018-10-15T23:28:50.597Z,9.70
2018-10-15T23:31:19.340Z,9.70
2018-10-15T23:33:48.394Z,9.80
2018-10-15T23:36:17.076Z,9.70
2018-10-15T23:38:45.801Z,9.70
2018-10-15T23:41:14.487Z,9.70
2018-10-15T23:43:43.155Z,9.60
2018-10-15T23:46:11.948Z,9.60
2018-10-15T23:48:40.590Z,9.60
2018-10-15T23:51:09.275Z,9.50
2018-10-15T23:53:37.946Z,9.50
2018-10-15T23:56:06.722Z,9.50
2018-10-15T23:58:35.384Z,9.40
